sensor_id;sensor_type;location;lat;lon;timestamp;pressure;altitude;pressure_sealevel;temperature;humidity
61537;BME280;48695;53.480;-6.300;2023-03-16T00:01:39;99289.28;;;12.12;77.26
61537;BME280;48695;53.480;-6.300;2023-03-16T00:04:05;99274.09;;;12.01;77.62
61537;BME280;48695;53.480;-6.300;2023-03-16T00:06:30;99293.63;;;12.11;77.41
61537;BME280;48695;53.480;-6.300;2023-03-16T00:08:55;99279.78;;;12.09;77.45
61537;BME280;48695;53.480;-6.300;2023-03-16T00:11:27;99230.41;;;11.86;77.32
61537;BME280;48695;53.480;-6.300;2023-03-16T00:13:53;99283.03;;;12.14;77.55
61537;BME280;48695;53.480;-6.300;2023-03-16T00:16:18;99282.94;;;12.16;77.71
61537;BME280;48695;53.480;-6.300;2023-03-16T00:18:44;99272.56;;;12.14;77.32
61537;BME280;48695;53.480;-6.300;2023-03-16T00:21:12;99272.41;;;12.17;77.65
61537;BME280;48695;53.480;-6.300;2023-03-16T00:23:38;99266.47;;;12.14;77.52
61537;BME280;48695;53.480;-6.300;2023-03-16T00:26:06;99262.84;;;12.16;77.39
61537;BME280;48695;53.480;-6.300;2023-03-16T00:28:34;99262.09;;;12.14;77.32
61537;BME280;48695;53.480;-6.300;2023-03-16T00:31:03;99272.41;;;12.17;77.19
61537;BME280;48695;53.480;-6.300;2023-03-16T00:33:29;99268.06;;;12.16;77.10
61537;BME280;48695;53.480;-6.300;2023-03-16T00:35:59;99261.38;;;12.11;77.25
61537;BME280;48695;53.480;-6.300;2023-03-16T00:38:32;99263.63;;;12.18;77.18
61537;BME280;48695;53.480;-6.300;2023-03-16T00:41:02;99250.53;;;12.18;77.51
61537;BME280;48695;53.480;-6.300;2023-03-16T00:43:32;99246.25;;;12.17;77.49
61537;BME280;48695;53.480;-6.300;2023-03-16T00:46:06;99244.53;;;12.16;77.31
61537;BME280;48695;53.480;-6.300;2023-03-16T00:48:36;99254.84;;;12.19;77.46
61537;BME280;48695;53.480;-6.300;2023-03-16T00:51:02;99253.16;;;12.18;76.95
61537;BME280;48695;53.480;-6.300;2023-03-16T00:53:31;99247.09;;;12.18;77.35
61537;BME280;48695;53.480;-6.300;2023-03-16T00:55:57;99246.84;;;12.05;77.29
61537;BME280;48695;53.480;-6.300;2023-03-16T00:58:23;99242.78;;;12.17;77.61
61537;BME280;48695;53.480;-6.300;2023-03-16T01:00:48;99241.91;;;12.16;77.31
61537;BME280;48695;53.480;-6.300;2023-03-16T01:03:15;99242.69;;;12.18;77.02
61537;BME280;48695;53.480;-6.300;2023-03-16T01:05:41;99235.78;;;12.17;77.43
61537;BME280;48695;53.480;-6.300;2023-03-16T01:08:07;99225.31;;;12.17;77.60
61537;BME280;48695;53.480;-6.300;2023-03-16T01:10:36;99225.13;;;12.20;77.32
61537;BME280;48695;53.480;-6.300;2023-03-16T01:13:02;99210.44;;;12.18;77.41
61537;BME280;48695;53.480;-6.300;2023-03-16T01:15:29;99206.81;;;12.20;77.42
61537;BME280;48695;53.480;-6.300;2023-03-16T01:17:55;99189.28;;;12.05;77.42
61537;BME280;48695;53.480;-6.300;2023-03-16T01:20:20;99211.13;;;12.22;77.17
61537;BME280;48695;53.480;-6.300;2023-03-16T01:22:46;99194.56;;;12.21;77.30
61537;BME280;48695;53.480;-6.300;2023-03-16T01:25:12;99193.72;;;12.20;77.45
61537;BME280;48695;53.480;-6.300;2023-03-16T01:27:37;99198.03;;;12.22;77.45
61537;BME280;48695;53.480;-6.300;2023-03-16T01:30:04;99150.72;;;11.93;77.76
61537;BME280;48695;53.480;-6.300;2023-03-16T01:32:30;99203.28;;;12.22;77.10
61537;BME280;48695;53.480;-6.300;2023-03-16T01:34:55;99183.66;;;12.13;77.49
61537;BME280;48695;53.480;-6.300;2023-03-16T01:37:21;99197.13;;;12.23;77.25
61537;BME280;48695;53.480;-6.300;2023-03-16T01:39:47;99187.50;;;12.23;77.31
61537;BME280;48695;53.480;-6.300;2023-03-16T01:42:13;99185.72;;;12.24;77.59
61537;BME280;48695;53.480;-6.300;2023-03-16T01:44:56;99188.19;;;12.27;76.88
61537;BME280;48695;53.480;-6.300;2023-03-16T01:47:25;99186.66;;;12.23;77.27
61537;BME280;48695;53.480;-6.300;2023-03-16T01:49:54;99178.69;;;12.24;77.48
61537;BME280;48695;53.480;-6.300;2023-03-16T01:52:22;99178.63;;;12.26;77.29
61537;BME280;48695;53.480;-6.300;2023-03-16T01:54:53;99170.75;;;12.26;77.64
61537;BME280;48695;53.480;-6.300;2023-03-16T01:57:30;99162.00;;;12.27;77.03
61537;BME280;48695;53.480;-6.300;2023-03-16T02:00:08;99165.53;;;12.26;77.26
61537;BME280;48695;53.480;-6.300;2023-03-16T02:02:48;99163.84;;;12.25;77.57
61537;BME280;48695;53.480;-6.300;2023-03-16T02:05:19;99166.38;;;12.26;77.39
61537;BME280;48695;53.480;-6.300;2023-03-16T02:07:48;99157.75;;;12.24;77.90
61537;BME280;48695;53.480;-6.300;2023-03-16T02:10:18;99155.91;;;12.26;77.83
61537;BME280;48695;53.480;-6.300;2023-03-16T02:12:44;99136.38;;;12.16;77.30
61537;BME280;48695;53.480;-6.300;2023-03-16T02:15:11;99145.44;;;12.26;77.65
61537;BME280;48695;53.480;-6.300;2023-03-16T02:17:38;99150.66;;;12.26;77.94
61537;BME280;48695;53.480;-6.300;2023-03-16T02:22:59;99107.00;;;11.95;77.64
61537;BME280;48695;53.480;-6.300;2023-03-16T02:28:18;99147.81;;;12.31;77.41
61537;BME280;48695;53.480;-6.300;2023-03-16T02:30:46;99132.34;;;12.26;77.82
61537;BME280;48695;53.480;-6.300;2023-03-16T02:33:13;99133.97;;;12.29;78.00
61537;BME280;48695;53.480;-6.300;2023-03-16T02:35:39;99134.81;;;12.29;77.66
61537;BME280;48695;53.480;-6.300;2023-03-16T02:38:05;99129.81;;;12.25;77.65
61537;BME280;48695;53.480;-6.300;2023-03-16T02:40:32;99120.13;;;12.27;77.49
61537;BME280;48695;53.480;-6.300;2023-03-16T02:45:39;99124.00;;;12.35;77.34
61537;BME280;48695;53.480;-6.300;2023-03-16T02:48:15;99124.84;;;12.36;77.40
61537;BME280;48695;53.480;-6.300;2023-03-16T02:50:47;99115.28;;;12.35;77.42
61537;BME280;48695;53.480;-6.300;2023-03-16T02:53:14;99111.00;;;12.34;78.01
61537;BME280;48695;53.480;-6.300;2023-03-16T02:55:39;99110.06;;;12.35;77.56
61537;BME280;48695;53.480;-6.300;2023-03-16T02:58:05;99116.06;;;12.37;77.75
61537;BME280;48695;53.480;-6.300;2023-03-16T03:00:30;99112.53;;;12.38;77.54
61537;BME280;48695;53.480;-6.300;2023-03-16T03:02:56;99116.72;;;12.40;77.76
61537;BME280;48695;53.480;-6.300;2023-03-16T03:05:22;99107.44;;;12.35;77.41
61537;BME280;48695;53.480;-6.300;2023-03-16T03:07:48;99118.25;;;12.44;77.46
61537;BME280;48695;53.480;-6.300;2023-03-16T03:10:14;99111.25;;;12.45;77.58
61537;BME280;48695;53.480;-6.300;2023-03-16T03:12:39;99110.16;;;12.49;77.32
61537;BME280;48695;53.480;-6.300;2023-03-16T03:15:06;99097.81;;;12.51;77.51
61537;BME280;48695;53.480;-6.300;2023-03-16T03:17:31;99096.91;;;12.52;77.30
61537;BME280;48695;53.480;-6.300;2023-03-16T03:19:58;99106.44;;;12.53;77.32
61537;BME280;48695;53.480;-6.300;2023-03-16T03:22:24;99097.63;;;12.54;77.75
61537;BME280;48695;53.480;-6.300;2023-03-16T03:24:50;99088.00;;;12.55;77.49
61537;BME280;48695;53.480;-6.300;2023-03-16T03:27:16;99087.00;;;12.57;77.32
61537;BME280;48695;53.480;-6.300;2023-03-16T03:29:41;99087.00;;;12.57;77.15
61537;BME280;48695;53.480;-6.300;2023-03-16T03:32:07;99079.91;;;12.59;77.15
61537;BME280;48695;53.480;-6.300;2023-03-16T03:34:32;99068.75;;;12.56;77.49
61537;BME280;48695;53.480;-6.300;2023-03-16T03:36:58;99048.25;;;12.48;77.44
61537;BME280;48695;53.480;-6.300;2023-03-16T03:39:24;99068.56;;;12.59;77.75
61537;BME280;48695;53.480;-6.300;2023-03-16T03:41:50;99070.94;;;12.63;77.21
61537;BME280;48695;53.480;-6.300;2023-03-16T03:44:20;99062.88;;;12.66;77.39
61537;BME280;48695;53.480;-6.300;2023-03-16T03:46:46;99055.03;;;12.66;77.52
61537;BME280;48695;53.480;-6.300;2023-03-16T03:49:11;99048.88;;;12.67;77.05
61537;BME280;48695;53.480;-6.300;2023-03-16T03:51:37;99074.13;;;12.68;77.04
61537;BME280;48695;53.480;-6.300;2023-03-16T03:54:02;99062.63;;;12.71;76.88
61537;BME280;48695;53.480;-6.300;2023-03-16T03:56:28;99051.66;;;12.64;77.07
61537;BME280;48695;53.480;-6.300;2023-03-16T03:58:53;99055.81;;;12.68;77.42
61537;BME280;48695;53.480;-6.300;2023-03-16T04:01:19;99058.31;;;12.70;77.01
61537;BME280;48695;53.480;-6.300;2023-03-16T04:03:45;99049.78;;;12.66;77.20
61537;BME280;48695;53.480;-6.300;2023-03-16T04:06:10;99047.75;;;12.71;77.12
61537;BME280;48695;53.480;-6.300;2023-03-16T04:08:36;99049.47;;;12.72;77.46
61537;BME280;48695;53.480;-6.300;2023-03-16T04:11:01;99035.44;;;12.73;77.05
61537;BME280;48695;53.480;-6.300;2023-03-16T04:13:26;99033.75;;;12.72;77.31
61537;BME280;48695;53.480;-6.300;2023-03-16T04:15:56;99032.63;;;12.77;77.19
61537;BME280;48695;53.480;-6.300;2023-03-16T04:18:22;99004.63;;;12.63;77.18
61537;BME280;48695;53.480;-6.300;2023-03-16T04:20:48;99035.44;;;12.73;76.86
61537;BME280;48695;53.480;-6.300;2023-03-16T04:23:13;99031.88;;;12.75;77.27
61537;BME280;48695;53.480;-6.300;2023-03-16T04:25:40;99026.47;;;12.78;77.35
61537;BME280;48695;53.480;-6.300;2023-03-16T04:28:06;99031.59;;;12.79;76.79
61537;BME280;48695;53.480;-6.300;2023-03-16T04:30:31;99021.22;;;12.78;77.14
61537;BME280;48695;53.480;-6.300;2023-03-16T04:32:57;99021.22;;;12.78;76.82
61537;BME280;48695;53.480;-6.300;2023-03-16T04:35:22;99024.59;;;12.80;77.18
61537;BME280;48695;53.480;-6.300;2023-03-16T04:37:48;99017.66;;;12.79;77.31
61537;BME280;48695;53.480;-6.300;2023-03-16T04:40:13;99028.03;;;12.80;77.35
61537;BME280;48695;53.480;-6.300;2023-03-16T04:42:44;99021.03;;;12.81;76.93
61537;BME280;48695;53.480;-6.300;2023-03-16T04:45:10;99027.94;;;12.82;77.28
61537;BME280;48695;53.480;-6.300;2023-03-16T04:47:36;99004.06;;;12.72;77.20
61537;BME280;48695;53.480;-6.300;2023-03-16T04:50:02;99000.59;;;12.71;76.84
61537;BME280;48695;53.480;-6.300;2023-03-16T04:52:29;99004.00;;;12.73;77.16
61537;BME280;48695;53.480;-6.300;2023-03-16T04:54:54;99008.72;;;12.83;76.88
61537;BME280;48695;53.480;-6.300;2023-03-16T04:57:20;99012.91;;;12.85;77.06
61537;BME280;48695;53.480;-6.300;2023-03-16T04:59:45;99001.59;;;12.85;76.91
61537;BME280;48695;53.480;-6.300;2023-03-16T05:02:11;99025.31;;;12.82;76.69
61537;BME280;48695;53.480;-6.300;2023-03-16T05:04:36;99008.50;;;12.86;76.79
61537;BME280;48695;53.480;-6.300;2023-03-16T05:07:02;99003.25;;;12.86;77.07
61537;BME280;48695;53.480;-6.300;2023-03-16T05:09:28;99004.22;;;12.85;77.12
61537;BME280;48695;53.480;-6.300;2023-03-16T05:11:53;99015.41;;;12.87;77.08
61537;BME280;48695;53.480;-6.300;2023-03-16T05:14:19;99007.56;;;12.87;77.22
61537;BME280;48695;53.480;-6.300;2023-03-16T05:16:44;99003.09;;;12.89;77.09
61537;BME280;48695;53.480;-6.300;2023-03-16T05:19:09;99003.09;;;12.89;76.81
61537;BME280;48695;53.480;-6.300;2023-03-16T05:21:35;99003.09;;;12.89;76.87
61537;BME280;48695;53.480;-6.300;2023-03-16T05:24:05;99011.69;;;12.91;76.76
61537;BME280;48695;53.480;-6.300;2023-03-16T05:26:31;99009.19;;;12.89;77.11
61537;BME280;48695;53.480;-6.300;2023-03-16T05:28:56;99005.72;;;12.89;77.00
61537;BME280;48695;53.480;-6.300;2023-03-16T05:31:22;99010.84;;;12.90;76.69
61537;BME280;48695;53.480;-6.300;2023-03-16T05:33:51;98998.59;;;12.91;76.86
61537;BME280;48695;53.480;-6.300;2023-03-16T05:36:16;99000.47;;;12.89;76.76
61537;BME280;48695;53.480;-6.300;2023-03-16T05:38:42;98985.69;;;12.88;77.10
61537;BME280;48695;53.480;-6.300;2023-03-16T05:41:07;98980.34;;;12.89;76.96
61537;BME280;48695;53.480;-6.300;2023-03-16T05:43:32;98978.56;;;12.90;76.66
61537;BME280;48695;53.480;-6.300;2023-03-16T05:45:58;98977.75;;;12.89;76.94
61537;BME280;48695;53.480;-6.300;2023-03-16T05:48:24;98974.28;;;12.89;76.76
61537;BME280;48695;53.480;-6.300;2023-03-16T05:50:52;98975.97;;;12.90;76.94
61537;BME280;48695;53.480;-6.300;2023-03-16T05:53:18;98945.28;;;12.78;76.81
61537;BME280;48695;53.480;-6.300;2023-03-16T05:55:43;98959.66;;;12.85;76.81
61537;BME280;48695;53.480;-6.300;2023-03-16T05:58:09;98971.09;;;12.84;76.52
61537;BME280;48695;53.480;-6.300;2023-03-16T06:00:36;98965.84;;;12.84;76.59
61537;BME280;48695;53.480;-6.300;2023-03-16T06:03:03;98971.09;;;12.84;76.72
61537;BME280;48695;53.480;-6.300;2023-03-16T06:05:29;98970.31;;;12.82;76.80
61537;BME280;48695;53.480;-6.300;2023-03-16T06:07:56;98973.88;;;12.81;76.76
61537;BME280;48695;53.480;-6.300;2023-03-16T06:10:22;98965.34;;;12.77;76.93
61537;BME280;48695;53.480;-6.300;2023-03-16T06:12:48;98967.06;;;12.78;77.11
61537;BME280;48695;53.480;-6.300;2023-03-16T06:15:13;98970.69;;;12.76;76.77
61537;BME280;48695;53.480;-6.300;2023-03-16T06:17:39;98950.47;;;12.63;77.19
61537;BME280;48695;53.480;-6.300;2023-03-16T06:20:08;98962.09;;;12.73;77.20
61537;BME280;48695;53.480;-6.300;2023-03-16T06:22:38;98946.56;;;12.70;76.81
61537;BME280;48695;53.480;-6.300;2023-03-16T06:25:04;98929.31;;;12.66;76.90
61537;BME280;48695;53.480;-6.300;2023-03-16T06:27:30;98931.22;;;12.64;77.48
61537;BME280;48695;53.480;-6.300;2023-03-16T06:29:55;98920.91;;;12.61;76.88
61537;BME280;48695;53.480;-6.300;2023-03-16T06:32:21;98919.22;;;12.60;77.42
61537;BME280;48695;53.480;-6.300;2023-03-16T06:34:46;98915.88;;;12.58;77.31
61537;BME280;48695;53.480;-6.300;2023-03-16T06:37:12;98865.50;;;12.25;77.55
61537;BME280;48695;53.480;-6.300;2023-03-16T06:39:38;98898.34;;;12.44;77.59
61537;BME280;48695;53.480;-6.300;2023-03-16T06:42:03;98899.47;;;12.55;77.19
61537;BME280;48695;53.480;-6.300;2023-03-16T06:44:29;98905.47;;;12.57;76.81
61537;BME280;48695;53.480;-6.300;2023-03-16T06:46:55;98925.66;;;12.55;77.33
61537;BME280;48695;53.480;-6.300;2023-03-16T06:49:21;98928.38;;;12.53;77.48
61537;BME280;48695;53.480;-6.300;2023-03-16T06:51:46;98940.72;;;12.51;77.21
61537;BME280;48695;53.480;-6.300;2023-03-16T06:54:12;98943.25;;;12.53;77.47
61537;BME280;48695;53.480;-6.300;2023-03-16T06:56:37;98932.78;;;12.53;77.40
61537;BME280;48695;53.480;-6.300;2023-03-16T06:59:03;98932.59;;;12.56;77.06
61537;BME280;48695;53.480;-6.300;2023-03-16T07:01:28;98936.97;;;12.55;77.82
61537;BME280;48695;53.480;-6.300;2023-03-16T07:03:53;98930.81;;;12.56;77.46
61537;BME280;48695;53.480;-6.300;2023-03-16T07:06:19;98931.56;;;12.58;77.44
61537;BME280;48695;53.480;-6.300;2023-03-16T07:08:44;98965.41;;;12.61;77.69
61537;BME280;48695;53.480;-6.300;2023-03-16T07:11:10;98937.44;;;12.62;77.67
61537;BME280;48695;53.480;-6.300;2023-03-16T07:13:35;98930.25;;;12.65;77.08
61537;BME280;48695;53.480;-6.300;2023-03-16T07:16:01;98878.78;;;12.36;77.57
61537;BME280;48695;53.480;-6.300;2023-03-16T07:18:27;98925.97;;;12.64;77.52
61537;BME280;48695;53.480;-6.300;2023-03-16T07:20:54;98916.34;;;12.65;77.48
61537;BME280;48695;53.480;-6.300;2023-03-16T07:23:19;98912.59;;;12.69;77.16
61537;BME280;48695;53.480;-6.300;2023-03-16T07:25:45;98921.19;;;12.71;77.22
61537;BME280;48695;53.480;-6.300;2023-03-16T07:28:11;98934.22;;;12.72;77.22
61537;BME280;48695;53.480;-6.300;2023-03-16T07:30:36;98925.50;;;12.72;77.24
61537;BME280;48695;53.480;-6.300;2023-03-16T07:33:02;98925.59;;;12.70;77.43
61537;BME280;48695;53.480;-6.300;2023-03-16T07:35:28;98925.44;;;12.73;77.06
61537;BME280;48695;53.480;-6.300;2023-03-16T07:37:53;98935.81;;;12.75;77.46
61537;BME280;48695;53.480;-6.300;2023-03-16T07:40:19;98927.09;;;12.75;77.09
61537;BME280;48695;53.480;-6.300;2023-03-16T07:42:44;98929.16;;;12.69;77.14
61537;BME280;48695;53.480;-6.300;2023-03-16T07:45:10;98925.06;;;12.80;77.23
61537;BME280;48695;53.480;-6.300;2023-03-16T07:47:36;98937.22;;;12.81;77.16
61537;BME280;48695;53.480;-6.300;2023-03-16T07:50:02;98933.66;;;12.82;77.51
61537;BME280;48695;53.480;-6.300;2023-03-16T07:52:27;98931.78;;;12.84;77.30
61537;BME280;48695;53.480;-6.300;2023-03-16T07:54:53;98935.16;;;12.86;77.31
61537;BME280;48695;53.480;-6.300;2023-03-16T07:57:19;98928.06;;;12.88;76.93
61537;BME280;48695;53.480;-6.300;2023-03-16T07:59:44;98934.97;;;12.89;76.84
61537;BME280;48695;53.480;-6.300;2023-03-16T08:02:19;98885.94;;;12.62;77.20
61537;BME280;48695;53.480;-6.300;2023-03-16T08:04:46;98939.09;;;12.93;77.04
61537;BME280;48695;53.480;-6.300;2023-03-16T08:07:13;98944.25;;;12.94;77.04
61537;BME280;48695;53.480;-6.300;2023-03-16T08:09:39;98943.41;;;12.94;76.83
61537;BME280;48695;53.480;-6.300;2023-03-16T08:12:06;98944.16;;;12.96;76.91
61537;BME280;48695;53.480;-6.300;2023-03-16T08:14:32;98934.59;;;12.95;77.11
61537;BME280;48695;53.480;-6.300;2023-03-16T08:16:59;98937.97;;;12.97;77.31
61537;BME280;48695;53.480;-6.300;2023-03-16T08:19:26;98916.66;;;12.89;76.93
61537;BME280;48695;53.480;-6.300;2023-03-16T08:21:52;98934.22;;;13.01;77.17
61537;BME280;48695;53.480;-6.300;2023-03-16T08:24:17;98949.22;;;12.99;77.14
61537;BME280;48695;53.480;-6.300;2023-03-16T08:26:42;98941.16;;;13.02;77.24
61537;BME280;48695;53.480;-6.300;2023-03-16T08:29:08;98956.41;;;13.10;77.06
61537;BME280;48695;53.480;-6.300;2023-03-16T08:31:33;98949.22;;;13.13;77.33
61537;BME280;48695;53.480;-6.300;2023-03-16T08:33:59;98954.25;;;13.16;77.21
61537;BME280;48695;53.480;-6.300;2023-03-16T08:36:25;98961.78;;;13.22;77.57
61537;BME280;48695;53.480;-6.300;2023-03-16T08:38:51;98959.16;;;13.22;77.20
61537;BME280;48695;53.480;-6.300;2023-03-16T08:41:19;98973.94;;;13.38;77.53
61537;BME280;48695;53.480;-6.300;2023-03-16T08:43:44;98974.50;;;13.43;77.37
61537;BME280;48695;53.480;-6.300;2023-03-16T08:46:11;98976.53;;;13.52;77.28
61537;BME280;48695;53.480;-6.300;2023-03-16T08:48:38;98981.41;;;13.58;77.27
61537;BME280;48695;53.480;-6.300;2023-03-16T08:51:04;98946.75;;;13.53;77.20
61537;BME280;48695;53.480;-6.300;2023-03-16T08:53:30;98969.31;;;13.70;76.83
61537;BME280;48695;53.480;-6.300;2023-03-16T08:56:07;98966.97;;;13.80;76.91
61537;BME280;48695;53.480;-6.300;2023-03-16T08:58:33;98969.38;;;13.83;76.88
61537;BME280;48695;53.480;-6.300;2023-03-16T09:01:00;98965.81;;;13.84;76.66
61537;BME280;48695;53.480;-6.300;2023-03-16T09:03:26;98962.81;;;13.90;77.11
61537;BME280;48695;53.480;-6.300;2023-03-16T09:05:52;98965.03;;;13.96;76.69
61537;BME280;48695;53.480;-6.300;2023-03-16T09:08:18;98956.03;;;14.00;76.65
61537;BME280;48695;53.480;-6.300;2023-03-16T09:10:44;98939.88;;;14.06;76.69
61537;BME280;48695;53.480;-6.300;2023-03-16T09:13:11;98964.59;;;14.16;76.46
61537;BME280;48695;53.480;-6.300;2023-03-16T09:15:36;98944.31;;;14.18;76.12
61537;BME280;48695;53.480;-6.300;2023-03-16T09:18:03;98955.28;;;14.25;76.47
61537;BME280;48695;53.480;-6.300;2023-03-16T09:20:30;98950.25;;;14.35;77.04
61537;BME280;48695;53.480;-6.300;2023-03-16T09:22:56;98948.72;;;14.45;76.83
61537;BME280;48695;53.480;-6.300;2023-03-16T09:25:22;98950.72;;;14.54;76.75
61537;BME280;48695;53.480;-6.300;2023-03-16T09:27:49;98945.19;;;14.71;76.67
61537;BME280;48695;53.480;-6.300;2023-03-16T09:30:15;98952.03;;;14.87;76.36
61537;BME280;48695;53.480;-6.300;2023-03-16T09:32:41;98957.50;;;14.96;75.85
61537;BME280;48695;53.480;-6.300;2023-03-16T09:35:07;98939.00;;;14.98;75.61
61537;BME280;48695;53.480;-6.300;2023-03-16T09:37:32;98964.44;;;15.10;74.89
61537;BME280;48695;53.480;-6.300;2023-03-16T09:39:58;98972.31;;;15.10;74.75
61537;BME280;48695;53.480;-6.300;2023-03-16T09:42:36;98956.34;;;15.13;74.58
61537;BME280;48695;53.480;-6.300;2023-03-16T09:45:27;98960.03;;;15.11;74.43
61537;BME280;48695;53.480;-6.300;2023-03-16T09:47:57;98955.41;;;15.01;74.71
61537;BME280;48695;53.480;-6.300;2023-03-16T09:50:33;98897.38;;;14.66;74.84
61537;BME280;48695;53.480;-6.300;2023-03-16T09:55:51;98931.00;;;14.87;74.66
61537;BME280;48695;53.480;-6.300;2023-03-16T09:58:20;98952.66;;;15.03;75.24
61537;BME280;48695;53.480;-6.300;2023-03-16T10:05:58;98951.78;;;15.41;76.45
61537;BME280;48695;53.480;-6.300;2023-03-16T10:08:29;98936.59;;;15.57;75.89
61537;BME280;48695;53.480;-6.300;2023-03-16T10:13:54;98947.81;;;16.08;75.10
61537;BME280;48695;53.480;-6.300;2023-03-16T10:16:26;98940.78;;;16.20;74.56
61537;BME280;48695;53.480;-6.300;2023-03-16T10:19:02;98948.97;;;16.28;73.75
61537;BME280;48695;53.480;-6.300;2023-03-16T10:21:32;98932.19;;;16.18;73.17
61537;BME280;48695;53.480;-6.300;2023-03-16T10:24:03;98942.03;;;16.27;72.95
61537;BME280;48695;53.480;-6.300;2023-03-16T10:26:41;98941.91;;;16.29;73.12
61537;BME280;48695;53.480;-6.300;2023-03-16T10:29:12;98948.56;;;16.22;72.65
61537;BME280;48695;53.480;-6.300;2023-03-16T10:31:40;98959.00;;;16.23;72.65
61537;BME280;48695;53.480;-6.300;2023-03-16T10:34:06;98953.13;;;16.20;72.93
61537;BME280;48695;53.480;-6.300;2023-03-16T10:36:34;98959.97;;;16.22;73.07
61537;BME280;48695;53.480;-6.300;2023-03-16T10:39:07;98962.50;;;16.24;72.39
61537;BME280;48695;53.480;-6.300;2023-03-16T10:41:37;98959.97;;;16.22;73.34
61537;BME280;48695;53.480;-6.300;2023-03-16T10:46:42;98946.22;;;16.30;72.69
61537;BME280;48695;53.480;-6.300;2023-03-16T10:49:21;98953.56;;;16.38;73.02
61537;BME280;48695;53.480;-6.300;2023-03-16T10:51:49;98937.28;;;16.32;73.05
61537;BME280;48695;53.480;-6.300;2023-03-16T10:54:21;98946.41;;;16.51;73.84
61537;BME280;48695;53.480;-6.300;2023-03-16T10:56:48;98948.34;;;16.60;74.05
61537;BME280;48695;53.480;-6.300;2023-03-16T10:59:26;98936.97;;;16.83;75.04
61537;BME280;48695;53.480;-6.300;2023-03-16T11:01:52;98946.19;;;17.00;74.00
61537;BME280;48695;53.480;-6.300;2023-03-16T11:04:18;98936.25;;;17.15;73.15
61537;BME280;48695;53.480;-6.300;2023-03-16T11:06:55;98942.72;;;17.56;74.88
61537;BME280;48695;53.480;-6.300;2023-03-16T11:09:25;98952.28;;;17.91;74.22
61537;BME280;48695;53.480;-6.300;2023-03-16T11:11:57;98944.75;;;18.18;72.96
61537;BME280;48695;53.480;-6.300;2023-03-16T11:14:26;98938.88;;;18.47;73.20
61537;BME280;48695;53.480;-6.300;2023-03-16T11:17:06;98951.91;;;18.80;72.61
61537;BME280;48695;53.480;-6.300;2023-03-16T11:19:40;98951.84;;;18.91;70.65
61537;BME280;48695;53.480;-6.300;2023-03-16T11:22:14;98943.34;;;18.88;69.25
61537;BME280;48695;53.480;-6.300;2023-03-16T11:24:48;98947.41;;;18.92;69.56
61537;BME280;48695;53.480;-6.300;2023-03-16T11:27:21;98945.53;;;18.83;67.78
61537;BME280;48695;53.480;-6.300;2023-03-16T11:32:37;98955.63;;;18.57;67.57
61537;BME280;48695;53.480;-6.300;2023-03-16T11:35:18;98949.16;;;18.50;68.48
61537;BME280;48695;53.480;-6.300;2023-03-16T11:40:35;98945.22;;;18.44;67.97
61537;BME280;48695;53.480;-6.300;2023-03-16T11:43:26;98956.38;;;18.48;68.07
61537;BME280;48695;53.480;-6.300;2023-03-16T11:46:23;98946.66;;;18.48;67.43
61537;BME280;48695;53.480;-6.300;2023-03-16T11:54:09;98946.50;;;18.50;66.79
61537;BME280;48695;53.480;-6.300;2023-03-16T11:56:42;98934.56;;;18.34;66.20
61537;BME280;48695;53.480;-6.300;2023-03-16T12:02:35;98933.56;;;18.26;67.04
61537;BME280;48695;53.480;-6.300;2023-03-16T12:08:33;98943.69;;;18.41;68.82
61537;BME280;48695;53.480;-6.300;2023-03-16T12:11:01;98931.47;;;18.61;68.11
61537;BME280;48695;53.480;-6.300;2023-03-16T12:22:17;98924.19;;;19.76;67.78
61537;BME280;48695;53.480;-6.300;2023-03-16T12:24:44;98927.44;;;19.89;65.15
61537;BME280;48695;53.480;-6.300;2023-03-16T12:32:50;98921.44;;;20.36;62.86
61537;BME280;48695;53.480;-6.300;2023-03-16T12:38:28;98940.16;;;20.44;64.62
61537;BME280;48695;53.480;-6.300;2023-03-16T12:41:15;98934.03;;;20.43;63.10
61537;BME280;48695;53.480;-6.300;2023-03-16T12:49:09;98923.94;;;20.76;63.26
61537;BME280;48695;53.480;-6.300;2023-03-16T12:51:40;98920.03;;;20.80;61.70
61537;BME280;48695;53.480;-6.300;2023-03-16T12:54:23;98936.31;;;21.05;63.37
61537;BME280;48695;53.480;-6.300;2023-03-16T12:56:50;98932.47;;;21.17;60.94
61537;BME280;48695;53.480;-6.300;2023-03-16T12:59:22;98930.47;;;21.38;61.42
61537;BME280;48695;53.480;-6.300;2023-03-16T13:01:51;98930.41;;;21.48;60.32
61537;BME280;48695;53.480;-6.300;2023-03-16T13:04:20;98941.78;;;21.68;58.95
61537;BME280;48695;53.480;-6.300;2023-03-16T13:06:50;98935.88;;;21.74;59.19
61537;BME280;48695;53.480;-6.300;2023-03-16T13:09:27;98930.94;;;21.79;58.33
61537;BME280;48695;53.480;-6.300;2023-03-16T13:11:56;98932.81;;;21.69;57.29
61537;BME280;48695;53.480;-6.300;2023-03-16T13:14:37;98929.72;;;21.73;57.97
61537;BME280;48695;53.480;-6.300;2023-03-16T13:20:22;98934.03;;;21.57;57.65
61537;BME280;48695;53.480;-6.300;2023-03-16T13:23:05;98936.09;;;21.35;56.24
61537;BME280;48695;53.480;-6.300;2023-03-16T13:25:42;98943.09;;;21.17;56.23
61537;BME280;48695;53.480;-6.300;2023-03-16T13:28:14;98937.00;;;21.07;57.27
61537;BME280;48695;53.480;-6.300;2023-03-16T13:30:48;98936.50;;;20.93;57.16
61537;BME280;48695;53.480;-6.300;2023-03-16T13:33:18;98946.00;;;20.77;57.11
61537;BME280;48695;53.480;-6.300;2023-03-16T13:35:45;98943.94;;;20.61;56.55
61537;BME280;48695;53.480;-6.300;2023-03-16T13:38:13;98941.00;;;20.44;56.87
61537;BME280;48695;53.480;-6.300;2023-03-16T13:40:51;98933.47;;;20.30;58.39
61537;BME280;48695;53.480;-6.300;2023-03-16T13:43:21;98862.31;;;19.77;59.32
61537;BME280;48695;53.480;-6.300;2023-03-16T13:45:47;98932.47;;;20.02;59.99
61537;BME280;48695;53.480;-6.300;2023-03-16T13:48:14;98934.81;;;19.95;60.28
61537;BME280;48695;53.480;-6.300;2023-03-16T13:50:41;98936.78;;;19.93;58.64
61537;BME280;48695;53.480;-6.300;2023-03-16T13:53:30;98944.59;;;19.95;60.06
61537;BME280;48695;53.480;-6.300;2023-03-16T13:55:58;98935.63;;;19.86;61.05
61537;BME280;48695;53.480;-6.300;2023-03-16T13:58:30;98930.63;;;19.83;58.77
61537;BME280;48695;53.480;-6.300;2023-03-16T14:00:58;98930.22;;;19.78;58.69